MDT,Max TemperatureF,Mean TemperatureF,Min TemperatureF,Max Dew PointF,MeanDew PointF,Min DewpointF,Max Humidity, Mean Humidity, Min Humidity, Max Sea Level PressureIn, Mean Sea Level PressureIn, Min Sea Level PressureIn, Max VisibilityMiles, Mean VisibilityMiles, Min VisibilityMiles, Max Wind SpeedMPH, Mean Wind SpeedMPH, Max Gust SpeedMPH,PrecipitationIn, CloudCover, Events, WindDirDegrees
2012-10-1,76,50,24,29,25,21,88,51,14,30.40,30.21,30.08,,,,10,2,13,0.00,,,218
2012-10-2,69,47,24,28,23,17,88,53,18,30.09,29.96,29.83,,,,17,3,30,0.00,,,306
2012-10-3,56,38,20,17,5,-7,52,30,7,30.21,30.04,29.82,,,,10,4,16,0.00,,,270
2012-10-4,55,33,10,14,7,1,76,44,12,30.27,30.16,30.05,,,,13,2,20,0.00,,,301
2012-10-5,55,32,8,12,5,-3,80,45,10,30.31,30.20,30.11,,,,12,2,17,0.00,,,254
2012-10-6,58,33,7,9,1,-15,73,40,6,30.37,30.24,30.11,,,,14,2,21,0.00,,,303
2012-10-7,64,36,8,10,5,1,66,38,9,30.32,30.16,30.01,,,,9,2,12,0.00,,,213
2012-10-8,65,38,11,15,7,0,73,40,7,30.12,29.99,29.86,,,,15,3,23,0.00,,,23
2012-10-9,25,20,16,8,7,6,68,57,46,30.15,30.03,29.95,,,,4,1,,0.00,,,175
2012-10-10,66,50,30,20,17,15,52,32,14,30.05,30.02,30.00,,,,6,2,,0.00,,,172
2012-10-11,69,43,17,20,16,12,80,47,14,30.09,29.97,29.85,,,,9,2,12,0.00,,,145
2012-10-12,69,45,20,27,19,16,77,47,17,30.01,29.89,29.77,,,,13,2,21,0.00,,,348
2012-10-13,56,42,28,40,29,18,92,65,38,30.25,30.06,29.86,,,,13,4,20,0.01,,,337
2012-10-14,64,46,27,33,29,25,92,59,25,30.34,30.20,30.02,,,,14,3,21,0.00,,,164
2012-10-15,55,48,41,41,36,29,83,68,52,29.99,29.92,29.83,,,,15,4,24,0.02,,,145
2012-10-16,54,39,24,45,30,11,93,63,32,30.00,29.75,29.55,,,,25,9,47,0.62,,,292
2012-10-17,49,33,16,20,15,11,84,53,21,30.27,30.16,30.03,,,,13,3,16,0.00,,,352
2012-10-18,60,38,16,30,21,14,85,56,27,30.40,30.26,30.14,,,,7,1,9,0.00,,,323
2012-10-19,53,38,23,40,29,21,92,69,45,30.12,29.98,29.71,,,,14,4,23,0.02,,,141
2012-10-20,52,41,30,41,26,17,96,65,33,29.71,29.66,29.60,,,,21,8,32,0.28,,,261
2012-10-21,46,34,21,29,19,9,92,58,24,29.81,29.75,29.69,,,,17,3,24,0.06,,,201
2012-10-22,34,25,15,32,28,20,100,92,84,29.75,29.63,29.51,,,,7,2,,0.33,,,350
2012-10-23,30,17,4,25,16,7,96,80,63,30.06,29.86,29.73,,,,12,2,15,0.30,,,200
2012-10-24,26,14,1,22,10,-4,91,77,62,30.14,30.09,30.04,,,,7,1,9,0.02,,,150
2012-10-25,33,21,8,22,18,9,92,77,61,30.44,30.23,30.07,,,,10,1,18,0.05,,,177
2012-10-26,27,15,2,23,12,-2,88,83,77,30.51,30.36,30.20,,,,12,2,16,0.03,,,112
2012-10-27,36,29,21,31,26,21,96,83,70,30.17,30.10,30.05,,,,13,2,18,0.12,,,136
2012-10-28,46,40,33,41,36,32,100,91,82,30.08,30.04,30.00,,,,8,1,10,0.45,,,123
2012-10-29,56,44,31,41,35,30,100,71,41,30.15,30.05,29.99,,,,13,3,21,0.12,,,171
2012-10-30,57,42,27,37,30,27,100,68,35,30.16,30.11,30.01,,,,12,2,16,0.00,,,167
2012-10-31,64,45,25,33,27,21,100,60,20,30.12,29.99,29.83,,,,13,4,18,0.00,,,165